Time;durP1;ratioP1;P1;durP2;ratioP2;P2;SDS_P1;SDS_P2;PMS_P1;PMS_P2;Temp;Humidity;BMP_temperature;BMP_pressure;BME280_temperature;BME280_humidity;BME280_pressure;Samples;Min_cycle;Max_cycle;Signal;HPM_P1;HPM_P2
2022/09/06 00:00:50;;;;;;;;;;;18.30;99.90;;;;;;5034848;28;20357;-82
2022/09/06 00:03:16;;;;;;;;;;;18.20;99.90;;;;;;5032513;28;19921;-83
2022/09/06 00:05:43;;;;;;;;;;;18.30;99.90;;;;;;5034067;28;20420;-82
2022/09/06 00:08:09;;;;;;;;;;;18.20;99.90;;;;;;5032959;28;19929;-82
2022/09/06 00:10:36;;;;;;;;;;;18.20;99.90;;;;;;5032506;28;19916;-82
2022/09/06 00:13:05;;;;;;;;;;;18.20;99.90;;;;;;5031873;28;19913;-82
2022/09/06 00:15:31;;;;;;;;;;;18.30;99.90;;;;;;5033070;28;19917;-83
2022/09/06 00:17:58;;;;;;;;;;;18.20;99.90;;;;;;5034119;28;20055;-82
2022/09/06 00:20:26;;;;;;;;;;;18.20;99.90;;;;;;5032089;28;19921;-82
2022/09/06 00:22:55;;;;;;;;;;;18.20;99.90;;;;;;5031759;28;20049;-82
2022/09/06 00:25:21;;;;;;;;;;;18.30;99.90;;;;;;5032514;28;20477;-82
2022/09/06 00:27:46;;;;;;;;;;;18.20;99.90;;;;;;5032353;28;20012;-82
2022/09/06 00:30:13;;;;;;;;;;;18.10;99.90;;;;;;5027519;28;19928;-82
2022/09/06 00:32:38;;;;;;;;;;;18.10;99.90;;;;;;5031337;28;19927;-82
2022/09/06 00:35:05;;;;;;;;;;;18.10;99.90;;;;;;5031468;28;19924;-82
2022/09/06 00:37:30;;;;;;;;;;;18.10;99.90;;;;;;5032166;28;19924;-82
2022/09/06 00:39:56;;;;;;;;;;;18.10;99.90;;;;;;5032148;28;19921;-82
2022/09/06 00:42:21;;;;;;;;;;;18.00;99.90;;;;;;5033695;28;19917;-83
2022/09/06 00:44:48;;;;;;;;;;;18.00;99.90;;;;;;5035486;28;19913;-83
2022/09/06 00:47:13;;;;;;;;;;;18.10;99.90;;;;;;5030974;28;19917;-83
2022/09/06 00:49:44;;;;;;;;;;;18.10;99.90;;;;;;5031084;28;19935;-82
2022/09/06 00:52:12;;;;;;;;;;;18.00;99.90;;;;;;5032677;28;19928;-82
2022/09/06 00:54:38;;;;;;;;;;;18.00;99.90;;;;;;5014598;28;19920;-83
2022/09/06 00:57:04;;;;;;;;;;;17.90;99.90;;;;;;5031758;28;19976;-82
2022/09/06 00:59:33;;;;;;;;;;;17.90;99.90;;;;;;5030895;28;20190;-82
2022/09/06 01:01:58;;;;;;;;;;;17.90;99.90;;;;;;5031043;28;19979;-82
2022/09/06 01:04:24;;;;;;;;;;;17.90;99.90;;;;;;5032760;28;20289;-82
2022/09/06 01:06:53;;;;;;;;;;;17.80;99.90;;;;;;5032025;28;20014;-82
2022/09/06 01:09:30;;;;;;;;;;;17.80;99.90;;;;;;5014165;28;19932;-83
2022/09/06 01:11:56;;;;;;;;;;;17.80;99.90;;;;;;5031939;28;19917;-83
2022/09/06 01:14:40;;;;;;;;;;;17.80;99.90;;;;;;5036075;28;19924;-83
2022/09/06 01:17:21;;;;;;;;;;;17.80;99.90;;;;;;5031565;28;19921;-82
2022/09/06 01:20:08;;;;;;;;;;;17.80;99.90;;;;;;5031254;28;19924;-82
2022/09/06 01:22:36;;;;;;;;;;;17.80;99.90;;;;;;5031351;28;20305;-82
2022/09/06 01:25:21;;;;;;;;;;;17.70;99.90;;;;;;5031086;28;19952;-82
2022/09/06 01:28:05;;;;;;;;;;;17.80;99.90;;;;;;5013412;28;19917;-82
2022/09/06 01:30:32;;;;;;;;;;;17.90;99.90;;;;;;5030916;28;19917;-82
2022/09/06 01:33:17;;;;;;;;;;;17.90;99.90;;;;;;5012874;28;19924;-82
2022/09/06 01:35:54;;;;;;;;;;;17.90;99.90;;;;;;5030604;28;20385;-82
2022/09/06 01:38:20;;;;;;;;;;;17.80;99.90;;;;;;5031880;28;20288;-82
2022/09/06 01:40:45;;;;;;;;;;;17.80;99.90;;;;;;5031234;28;19916;-82
2022/09/06 01:43:14;;;;;;;;;;;17.90;99.90;;;;;;5030017;28;19917;-82
2022/09/06 01:45:45;;;;;;;;;;;17.90;99.90;;;;;;5016207;28;20587;-82
2022/09/06 01:48:19;;;;;;;;;;;17.90;99.90;;;;;;5030584;28;19963;-82
2022/09/06 01:51:00;;;;;;;;;;;17.90;99.90;;;;;;5031130;28;20500;-82
2022/09/06 01:53:33;;;;;;;;;;;17.90;99.90;;;;;;5030744;28;19924;-83
2022/09/06 01:56:06;;;;;;;;;;;17.80;99.90;;;;;;5030691;28;20011;-82
2022/09/06 01:58:46;;;;;;;;;;;17.90;99.90;;;;;;5030368;28;20039;-81
2022/09/06 02:01:11;;;;;;;;;;;17.90;99.90;;;;;;5013892;28;20719;-82
2022/09/06 02:03:44;;;;;;;;;;;17.90;99.90;;;;;;5032664;28;19921;-82
2022/09/06 02:06:13;;;;;;;;;;;18.10;99.90;;;;;;5030407;28;19956;-81
2022/09/06 02:08:41;;;;;;;;;;;18.00;99.90;;;;;;5030063;28;19925;-82
2022/09/06 02:11:08;;;;;;;;;;;18.00;99.90;;;;;;5030772;28;19917;-82
2022/09/06 02:13:45;;;;;;;;;;;18.00;99.90;;;;;;5033215;28;19923;-82
2022/09/06 02:16:12;;;;;;;;;;;18.00;99.90;;;;;;5031613;28;19916;-82
2022/09/06 02:18:51;;;;;;;;;;;18.10;99.90;;;;;;5030040;28;19947;-82
2022/09/06 02:21:18;;;;;;;;;;;18.20;99.90;;;;;;5030448;28;19921;-82
2022/09/06 02:23:45;;;;;;;;;;;18.30;99.90;;;;;;5030527;28;19923;-82
2022/09/06 02:26:17;;;;;;;;;;;18.40;99.90;;;;;;5030319;28;19964;-81
2022/09/06 02:28:42;;;;;;;;;;;18.60;99.90;;;;;;5030926;28;19935;-83
2022/09/06 02:31:31;;;;;;;;;;;18.70;99.90;;;;;;5030686;28;19920;-82
2022/09/06 02:33:57;;;;;;;;;;;18.30;99.90;;;;;;4968845;28;19925;-82
2022/09/06 02:36:23;;;;;;;;;;;18.20;99.90;;;;;;4968702;28;19917;-82
2022/09/06 02:38:49;;;;;;;;;;;18.30;99.90;;;;;;4968693;28;19917;-82
2022/09/06 02:41:17;;;;;;;;;;;18.60;99.90;;;;;;4968261;28;19952;-82
2022/09/06 02:43:42;;;;;;;;;;;18.60;99.90;;;;;;4970311;28;19958;-82
2022/09/06 02:46:08;;;;;;;;;;;18.60;99.90;;;;;;4968479;28;19918;-83
2022/09/06 02:48:33;;;;;;;;;;;18.80;99.90;;;;;;4975706;28;20311;-82
2022/09/06 02:51:05;;;;;;;;;;;18.70;99.90;;;;;;4950900;28;20001;-82
2022/09/06 02:53:31;;;;;;;;;;;18.80;99.90;;;;;;4977147;28;19921;-82
2022/09/06 02:55:57;;;;;;;;;;;18.60;99.90;;;;;;4980569;28;20760;-83
2022/09/06 02:58:23;;;;;;;;;;;18.50;99.90;;;;;;4972514;28;20438;-83
2022/09/06 03:00:49;;;;;;;;;;;18.40;99.90;;;;;;4971777;28;20013;-83
2022/09/06 03:03:14;;;;;;;;;;;18.40;99.90;;;;;;4973358;28;19932;-84
2022/09/06 03:05:40;;;;;;;;;;;18.30;99.90;;;;;;4971522;28;20390;-81
2022/09/06 03:08:06;;;;;;;;;;;18.20;99.90;;;;;;4955988;28;19925;-82
2022/09/06 03:10:31;;;;;;;;;;;18.20;99.90;;;;;;4973842;28;19968;-82
2022/09/06 03:12:57;;;;;;;;;;;18.10;99.90;;;;;;5033362;28;19917;-83
2022/09/06 03:15:23;;;;;;;;;;;18.10;99.90;;;;;;5035154;28;19991;-82
2022/09/06 03:17:48;;;;;;;;;;;18.20;99.90;;;;;;5034073;28;20389;-81
2022/09/06 03:20:14;;;;;;;;;;;18.20;99.90;;;;;;5034076;28;19928;-83
2022/09/06 03:22:39;;;;;;;;;;;18.00;99.90;;;;;;5033641;28;19921;-82
2022/09/06 03:25:05;;;;;;;;;;;17.90;99.90;;;;;;5034082;28;19920;-83
2022/09/06 03:27:31;;;;;;;;;;;18.00;99.90;;;;;;5033100;28;19921;-82
2022/09/06 03:29:57;;;;;;;;;;;17.90;99.90;;;;;;5033883;28;20042;-82
2022/09/06 03:32:22;;;;;;;;;;;18.00;99.90;;;;;;5014517;28;19963;-82
2022/09/06 03:34:48;;;;;;;;;;;18.00;99.90;;;;;;5034612;28;19963;-82
2022/09/06 03:37:13;;;;;;;;;;;18.00;99.90;;;;;;5033771;28;20397;-83
2022/09/06 03:39:39;;;;;;;;;;;18.10;99.90;;;;;;5032845;28;19923;-82
2022/09/06 03:42:05;;;;;;;;;;;18.20;99.90;;;;;;5033657;28;20424;-82
2022/09/06 03:44:30;;;;;;;;;;;18.20;99.90;;;;;;5033756;28;20407;-82
2022/09/06 03:46:56;;;;;;;;;;;18.20;99.90;;;;;;5032839;28;20445;-82
2022/09/06 03:49:21;;;;;;;;;;;18.20;99.90;;;;;;5032975;28;19943;-82
2022/09/06 03:51:47;;;;;;;;;;;18.20;99.90;;;;;;5015043;28;19924;-83
2022/09/06 03:54:12;;;;;;;;;;;18.20;99.90;;;;;;5032827;28;19925;-82
2022/09/06 03:56:38;;;;;;;;;;;18.10;99.90;;;;;;5032708;28;19982;-82
2022/09/06 03:59:03;;;;;;;;;;;18.10;99.90;;;;;;5032857;28;19917;-82
2022/09/06 04:01:29;;;;;;;;;;;18.10;99.90;;;;;;5032938;28;19920;-82
2022/09/06 04:03:54;;;;;;;;;;;18.00;99.90;;;;;;5031076;28;19917;-82
2022/09/06 04:06:20;;;;;;;;;;;17.90;99.90;;;;;;5032012;28;19936;-82
2022/09/06 04:08:45;;;;;;;;;;;17.90;99.90;;;;;;5032820;28;19958;-81
2022/09/06 04:11:11;;;;;;;;;;;18.00;99.90;;;;;;5034259;28;19920;-82
2022/09/06 04:13:36;;;;;;;;;;;18.00;99.90;;;;;;5032670;28;20003;-83
2022/09/06 04:16:03;;;;;;;;;;;18.10;99.90;;;;;;5032358;28;19920;-83
2022/09/06 04:18:28;;;;;;;;;;;18.00;99.90;;;;;;5033517;28;19920;-82
2022/09/06 04:20:55;;;;;;;;;;;18.00;99.90;;;;;;5033550;28;19932;-83
2022/09/06 04:23:21;;;;;;;;;;;18.10;99.90;;;;;;5032896;28;19921;-82
2022/09/06 04:25:47;;;;;;;;;;;18.00;99.90;;;;;;5032530;28;20058;-82
2022/09/06 04:28:13;;;;;;;;;;;18.10;99.90;;;;;;5032399;28;20022;-83
2022/09/06 04:30:39;;;;;;;;;;;18.10;99.90;;;;;;5031918;28;20757;-82
2022/09/06 04:33:04;;;;;;;;;;;18.10;99.90;;;;;;5032447;28;19917;-82
2022/09/06 04:35:30;;;;;;;;;;;18.10;99.90;;;;;;5032216;28;19916;-82
2022/09/06 04:37:59;;;;;;;;;;;18.10;99.90;;;;;;5031582;28;20427;-82
2022/09/06 04:40:24;;;;;;;;;;;18.00;99.90;;;;;;5034683;28;20038;-82
2022/09/06 04:42:50;;;;;;;;;;;17.90;99.90;;;;;;5034386;28;19935;-82
2022/09/06 04:45:15;;;;;;;;;;;17.90;99.90;;;;;;5033303;28;20437;-82
2022/09/06 04:47:41;;;;;;;;;;;17.80;99.90;;;;;;5033584;28;19968;-82
2022/09/06 04:50:06;;;;;;;;;;;17.80;99.90;;;;;;5017799;28;19917;-83
2022/09/06 04:52:32;;;;;;;;;;;17.80;99.90;;;;;;5031839;28;20141;-83
2022/09/06 04:54:57;;;;;;;;;;;17.80;99.90;;;;;;5033899;28;20332;-83
2022/09/06 04:57:23;;;;;;;;;;;17.80;99.90;;;;;;5031943;28;19916;-83
2022/09/06 04:59:49;;;;;;;;;;;17.80;99.90;;;;;;5031253;28;19923;-83
2022/09/06 05:02:14;;;;;;;;;;;18.00;99.90;;;;;;5040098;28;19917;-83
2022/09/06 05:04:40;;;;;;;;;;;17.80;99.90;;;;;;5033103;28;19921;-82
2022/09/06 05:07:06;;;;;;;;;;;18.00;99.90;;;;;;5014059;28;19928;-83
2022/09/06 05:09:32;;;;;;;;;;;17.80;99.90;;;;;;5031687;28;20007;-83
2022/09/06 05:11:58;;;;;;;;;;;18.00;99.90;;;;;;5031469;28;19963;-83
2022/09/06 05:14:24;;;;;;;;;;;18.10;99.90;;;;;;5030138;28;19921;-83
2022/09/06 05:16:50;;;;;;;;;;;18.30;99.90;;;;;;5030871;28;19928;-83
2022/09/06 05:19:16;;;;;;;;;;;17.90;99.90;;;;;;5031578;28;19960;-83
2022/09/06 05:21:41;;;;;;;;;;;18.20;99.90;;;;;;5013042;28;19917;-83
2022/09/06 05:24:07;;;;;;;;;;;18.40;99.90;;;;;;5031708;28;20007;-83
2022/09/06 05:26:32;;;;;;;;;;;18.00;99.90;;;;;;5031355;28;20345;-84
2022/09/06 05:28:58;;;;;;;;;;;17.80;99.90;;;;;;5033445;28;20416;-83
2022/09/06 05:31:23;;;;;;;;;;;17.90;99.90;;;;;;5035350;28;20004;-83
2022/09/06 05:33:50;;;;;;;;;;;17.80;99.90;;;;;;5031781;28;20390;-81
2022/09/06 05:36:16;;;;;;;;;;;17.90;99.90;;;;;;5031740;28;19923;-82
2022/09/06 05:38:41;;;;;;;;;;;17.90;99.90;;;;;;5030911;28;19917;-81
2022/09/06 05:41:07;;;;;;;;;;;18.00;99.90;;;;;;5033728;28;19913;-84
2022/09/06 05:43:32;;;;;;;;;;;17.90;99.90;;;;;;5031841;28;19917;-83
2022/09/06 05:45:58;;;;;;;;;;;17.70;99.90;;;;;;5012981;28;20186;-86
2022/09/06 05:48:23;;;;;;;;;;;17.70;99.90;;;;;;5030002;28;19981;-86
2022/09/06 05:50:58;;;;;;;;;;;17.60;99.90;;;;;;5025815;28;19978;-90
2022/09/06 05:53:23;;;;;;;;;;;17.70;99.90;;;;;;5028850;23;19930;-83
2022/09/06 05:55:49;;;;;;;;;;;17.70;99.90;;;;;;4996967;28;19921;-81
2022/09/06 05:58:14;;;;;;;;;;;17.80;99.90;;;;;;4992752;28;19929;-79
2022/09/06 06:00:40;;;;;;;;;;;17.70;99.90;;;;;;4992767;28;19925;-79
2022/09/06 06:03:05;;;;;;;;;;;17.80;99.90;;;;;;4994000;28;19917;-79
2022/09/06 06:05:31;;;;;;;;;;;17.70;99.90;;;;;;4992152;28;19914;-85
2022/09/06 06:07:58;;;;;;;;;;;17.60;99.90;;;;;;4990532;28;20008;-92
2022/09/06 06:10:24;;;;;;;;;;;17.60;99.90;;;;;;5001249;28;19940;-92
2022/09/06 06:12:49;;;;;;;;;;;17.60;99.90;;;;;;4994230;28;20393;-91
2022/09/06 06:15:15;;;;;;;;;;;17.60;99.90;;;;;;4976136;28;20409;-88
2022/09/06 06:17:40;;;;;;;;;;;17.60;99.90;;;;;;4992420;28;19941;-81
2022/09/06 06:20:06;;;;;;;;;;;17.60;99.90;;;;;;4990009;28;19928;-81
2022/09/06 06:22:32;;;;;;;;;;;17.60;99.90;;;;;;4990948;28;19960;-82
2022/09/06 06:24:57;;;;;;;;;;;17.60;99.90;;;;;;4991424;28;19972;-85
2022/09/06 06:27:23;;;;;;;;;;;17.60;99.90;;;;;;4994405;28;19994;-88
2022/09/06 06:29:49;;;;;;;;;;;17.60;99.90;;;;;;4991185;28;20444;-88
2022/09/06 06:32:15;;;;;;;;;;;17.70;99.90;;;;;;4997093;28;19919;-90
2022/09/06 06:34:40;;;;;;;;;;;17.70;99.90;;;;;;4980989;28;19917;-89
2022/09/06 06:37:06;;;;;;;;;;;17.80;99.90;;;;;;4999755;28;19976;-89
2022/09/06 06:39:31;;;;;;;;;;;17.90;99.90;;;;;;4982886;28;19924;-88
2022/09/06 06:41:57;;;;;;;;;;;17.90;99.90;;;;;;4989458;28;19921;-88
2022/09/06 06:44:23;;;;;;;;;;;17.90;99.90;;;;;;4992445;28;19968;-89
2022/09/06 06:46:48;;;;;;;;;;;17.90;99.90;;;;;;4995291;28;20453;-89
2022/09/06 06:49:14;;;;;;;;;;;18.00;99.90;;;;;;4982379;28;19922;-88
2022/09/06 06:51:40;;;;;;;;;;;18.20;99.90;;;;;;4987652;28;20015;-86
2022/09/06 06:54:05;;;;;;;;;;;18.30;99.90;;;;;;4978114;28;20043;-87
2022/09/06 06:56:32;;;;;;;;;;;18.50;99.90;;;;;;4996389;28;20456;-89
2022/09/06 06:59:00;;;;;;;;;;;19.40;99.90;;;;;;4975553;28;20000;-87
2022/09/06 07:01:27;;;;;;;;;;;18.70;99.90;;;;;;5000383;28;20407;-86
2022/09/06 07:03:53;;;;;;;;;;;18.70;99.90;;;;;;5008116;28;19917;-85
2022/09/06 07:06:19;;;;;;;;;;;18.70;99.90;;;;;;4973794;28;20407;-86
2022/09/06 07:08:45;;;;;;;;;;;18.80;99.90;;;;;;4970755;28;19918;-86
2022/09/06 07:11:11;;;;;;;;;;;18.70;99.90;;;;;;4988148;28;19914;-85
2022/09/06 07:13:37;;;;;;;;;;;19.70;99.90;;;;;;4992968;28;19929;-90
2022/09/06 07:16:14;;;;;;;;;;;21.20;99.90;;;;;;4999065;28;19923;-88
2022/09/06 07:18:44;;;;;;;;;;;21.70;99.90;;;;;;5006474;28;19967;-93
2022/09/06 07:21:10;;;;;;;;;;;22.10;99.90;;;;;;5004376;28;19969;-94
2022/09/06 07:23:35;;;;;;;;;;;22.50;99.90;;;;;;4999666;28;19913;-94
2022/09/06 07:26:01;;;;;;;;;;;21.00;99.90;;;;;;4998204;28;19925;-92
2022/09/06 07:28:26;;;;;;;;;;;20.10;99.90;;;;;;4994336;28;20020;-81
2022/09/06 07:30:54;;;;;;;;;;;20.10;99.90;;;;;;4994173;28;20353;-80
2022/09/06 07:33:19;;;;;;;;;;;19.90;99.90;;;;;;4990258;28;20352;-81
2022/09/06 07:35:58;;;;;;;;;;;19.70;99.90;;;;;;4999385;28;19920;-80
2022/09/06 07:38:24;;;;;;;;;;;19.70;99.90;;;;;;4986520;28;19917;-82
2022/09/06 07:40:53;;;;;;;;;;;19.50;99.90;;;;;;4986341;28;19918;-81
2022/09/06 07:43:19;;;;;;;;;;;19.40;99.90;;;;;;4988301;28;19937;-81
2022/09/06 07:45:44;;;;;;;;;;;19.30;99.90;;;;;;4986974;28;20377;-85
2022/09/06 07:48:10;;;;;;;;;;;19.20;99.90;;;;;;4969648;28;20032;-85
2022/09/06 07:50:35;;;;;;;;;;;19.10;99.90;;;;;;4987268;28;19914;-85
2022/09/06 07:53:08;;;;;;;;;;;19.00;99.90;;;;;;4986921;28;19961;-85
2022/09/06 07:55:34;;;;;;;;;;;18.80;99.90;;;;;;4986966;28;19925;-86
2022/09/06 07:57:59;;;;;;;;;;;20.30;99.90;;;;;;4969559;28;19913;-85
2022/09/06 08:00:25;;;;;;;;;;;19.20;99.90;;;;;;4987075;28;20721;-86
2022/09/06 08:02:50;;;;;;;;;;;19.60;99.90;;;;;;4969427;28;19964;-85
2022/09/06 08:05:16;;;;;;;;;;;20.10;99.90;;;;;;4987071;28;19920;-86
2022/09/06 08:07:41;;;;;;;;;;;22.10;99.90;;;;;;4986774;28;19914;-86
2022/09/06 08:10:07;;;;;;;;;;;22.40;99.90;;;;;;4986753;28;19922;-86
2022/09/06 08:12:32;;;;;;;;;;;21.10;99.90;;;;;;4986833;28;19921;-86
2022/09/06 08:14:58;;;;;;;;;;;20.70;99.90;;;;;;4986998;28;19929;-86
2022/09/06 08:17:23;;;;;;;;;;;20.30;99.90;;;;;;4987104;28;20025;-85
2022/09/06 08:19:49;;;;;;;;;;;20.20;99.90;;;;;;4986987;28;20004;-86
2022/09/06 08:22:15;;;;;;;;;;;20.00;99.90;;;;;;4985291;28;19914;-86
2022/09/06 08:24:40;;;;;;;;;;;19.90;99.90;;;;;;4968905;28;20012;-85
2022/09/06 08:27:10;;;;;;;;;;;19.90;99.90;;;;;;4968976;28;19914;-87
2022/09/06 08:29:35;;;;;;;;;;;20.00;99.90;;;;;;4987033;28;19925;-85
2022/09/06 08:32:01;;;;;;;;;;;19.90;99.90;;;;;;4969072;28;19992;-87
2022/09/06 08:34:26;;;;;;;;;;;19.80;99.90;;;;;;4986745;28;19920;-87
2022/09/06 08:36:52;;;;;;;;;;;19.90;99.90;;;;;;4968877;28;19910;-86
2022/09/06 08:39:18;;;;;;;;;;;19.90;99.90;;;;;;4986888;28;19956;-86
2022/09/06 08:41:43;;;;;;;;;;;19.70;99.90;;;;;;4986551;28;19925;-86
2022/09/06 08:44:11;;;;;;;;;;;19.60;99.90;;;;;;4986466;28;19914;-85
2022/09/06 08:46:46;;;;;;;;;;;19.70;99.90;;;;;;4968680;28;19917;-84
2022/09/06 08:49:11;;;;;;;;;;;19.50;99.90;;;;;;4986384;28;20439;-85
2022/09/06 08:51:37;;;;;;;;;;;19.50;99.90;;;;;;5000470;28;19953;-85
2022/09/06 08:54:17;;;;;;;;;;;19.60;99.90;;;;;;5001594;28;19932;-85
2022/09/06 08:56:57;;;;;;;;;;;19.60;99.90;;;;;;4986266;28;19945;-85
2022/09/06 08:59:23;;;;;;;;;;;19.80;99.90;;;;;;4986526;28;19987;-85
2022/09/06 09:02:01;;;;;;;;;;;19.80;99.90;;;;;;4968512;28;19917;-85
2022/09/06 09:04:27;;;;;;;;;;;19.70;99.90;;;;;;4986406;28;20001;-84
2022/09/06 09:06:56;;;;;;;;;;;19.80;99.90;;;;;;4968424;28;19913;-84
2022/09/06 09:09:22;;;;;;;;;;;19.70;99.90;;;;;;4968244;28;20401;-84
2022/09/06 09:11:49;;;;;;;;;;;19.50;99.90;;;;;;4967813;28;19921;-84
2022/09/06 09:14:23;;;;;;;;;;;19.50;99.90;;;;;;4985796;28;20407;-85
2022/09/06 09:16:53;;;;;;;;;;;19.60;99.90;;;;;;4985320;28;20304;-85
2022/09/06 09:19:19;;;;;;;;;;;19.60;99.90;;;;;;4985403;28;19925;-85
2022/09/06 09:21:45;;;;;;;;;;;19.70;99.90;;;;;;4985396;28;19914;-84
2022/09/06 09:24:11;;;;;;;;;;;19.80;99.90;;;;;;4968070;28;19952;-85
2022/09/06 09:26:46;;;;;;;;;;;19.90;99.90;;;;;;4985570;28;19928;-85
2022/09/06 09:29:13;;;;;;;;;;;19.90;99.90;;;;;;4967627;28;19933;-85
2022/09/06 09:31:39;;;;;;;;;;;19.80;99.90;;;;;;4985181;28;19913;-84
2022/09/06 09:34:09;;;;;;;;;;;20.20;99.90;;;;;;4985102;28;20341;-85
2022/09/06 09:36:35;;;;;;;;;;;20.30;99.90;;;;;;4984686;28;19914;-85
2022/09/06 09:39:07;;;;;;;;;;;20.10;99.90;;;;;;4985167;28;19920;-85
2022/09/06 09:41:33;;;;;;;;;;;20.20;99.90;;;;;;4985418;28;20433;-85
2022/09/06 09:44:03;;;;;;;;;;;20.50;99.90;;;;;;4985841;28;20008;-84
2022/09/06 09:46:33;;;;;;;;;;;20.90;99.90;;;;;;4985094;28;19920;-85
2022/09/06 09:49:21;;;;;;;;;;;20.90;99.90;;;;;;4985103;28;19957;-85
2022/09/06 09:52:03;;;;;;;;;;;20.60;99.90;;;;;;4985759;28;19926;-84
2022/09/06 09:54:29;;;;;;;;;;;20.60;99.90;;;;;;4985419;28;20013;-85
2022/09/06 09:56:55;;;;;;;;;;;20.30;99.90;;;;;;4984481;28;19921;-84
2022/09/06 09:59:25;;;;;;;;;;;20.30;99.90;;;;;;4967738;28;19917;-84
2022/09/06 10:01:54;;;;;;;;;;;20.30;99.90;;;;;;4967094;28;19914;-84
2022/09/06 10:04:32;;;;;;;;;;;20.30;99.90;;;;;;4984509;28;19910;-87
2022/09/06 10:07:18;;;;;;;;;;;20.20;99.90;;;;;;4985010;28;19913;-88
2022/09/06 10:09:47;;;;;;;;;;;20.30;99.90;;;;;;4985236;28;19921;-88
2022/09/06 10:12:39;;;;;;;;;;;20.20;99.90;;;;;;4985995;28;19914;-88
2022/09/06 10:15:06;;;;;;;;;;;20.10;99.90;;;;;;4978705;28;19914;-88
2022/09/06 10:17:33;;;;;;;;;;;20.00;99.90;;;;;;4985438;28;19914;-89
2022/09/06 10:20:00;;;;;;;;;;;20.00;99.90;;;;;;4985546;28;19914;-88
2022/09/06 10:22:42;;;;;;;;;;;20.00;99.90;;;;;;4984741;28;19960;-88
2022/09/06 10:25:18;;;;;;;;;;;20.10;99.90;;;;;;4976728;28;19918;-91
2022/09/06 10:27:50;;;;;;;;;;;20.30;99.90;;;;;;4985312;28;19960;-85
2022/09/06 10:30:16;;;;;;;;;;;20.20;99.90;;;;;;4987608;28;20381;-84
2022/09/06 10:32:50;;;;;;;;;;;20.10;99.90;;;;;;4980288;28;19964;-84
2022/09/06 10:35:35;;;;;;;;;;;20.30;99.90;;;;;;4965674;28;19918;-84
2022/09/06 10:38:13;;;;;;;;;;;20.10;99.90;;;;;;4984463;28;20451;-85
2022/09/06 10:40:38;;;;;;;;;;;20.10;99.90;;;;;;4990718;28;19952;-84
2022/09/06 10:43:07;;;;;;;;;;;20.00;99.90;;;;;;4995597;28;20016;-84
2022/09/06 10:45:33;;;;;;;;;;;19.80;99.90;;;;;;5004115;28;19916;-84
2022/09/06 10:48:07;;;;;;;;;;;19.60;99.90;;;;;;5003767;28;19913;-84
2022/09/06 10:50:42;;;;;;;;;;;19.50;99.90;;;;;;5002066;28;19923;-84
2022/09/06 10:53:20;;;;;;;;;;;19.50;99.90;;;;;;5002604;28;19968;-84
2022/09/06 10:55:48;;;;;;;;;;;19.50;99.90;;;;;;4987313;28;19918;-84
2022/09/06 10:58:16;;;;;;;;;;;19.70;99.90;;;;;;4966862;28;19917;-84
2022/09/06 11:00:46;;;;;;;;;;;19.90;99.90;;;;;;4985238;28;19914;-84
2022/09/06 11:03:17;;;;;;;;;;;20.30;99.90;;;;;;4993413;28;20694;-84
2022/09/06 11:05:45;;;;;;;;;;;20.40;99.90;;;;;;4996950;28;19921;-84
2022/09/06 11:08:21;;;;;;;;;;;20.70;99.90;;;;;;4984239;28;20092;-84
2022/09/06 11:10:49;;;;;;;;;;;20.80;99.90;;;;;;5003965;28;19929;-84
2022/09/06 11:13:15;;;;;;;;;;;21.20;99.90;;;;;;4989422;28;19918;-85
2022/09/06 11:15:44;;;;;;;;;;;21.50;99.90;;;;;;4986011;28;19914;-85
2022/09/06 11:18:25;;;;;;;;;;;21.70;99.90;;;;;;4970024;28;19925;-85
2022/09/06 11:20:59;;;;;;;;;;;21.30;99.90;;;;;;4987932;28;20012;-85
2022/09/06 11:23:43;;;;;;;;;;;21.40;99.90;;;;;;4987242;28;19956;-85
2022/09/06 11:26:18;;;;;;;;;;;21.50;99.90;;;;;;4986704;28;20008;-85
2022/09/06 11:28:51;;;;;;;;;;;21.60;99.90;;;;;;4988216;28;19925;-85
2022/09/06 11:31:25;;;;;;;;;;;21.90;99.90;;;;;;4989080;28;20400;-85
2022/09/06 11:34:11;;;;;;;;;;;21.80;99.90;;;;;;5007131;28;19936;-86
2022/09/06 11:36:37;;;;;;;;;;;21.60;99.90;;;;;;4996742;28;19918;-85
2022/09/06 11:39:04;;;;;;;;;;;21.80;99.90;;;;;;5003984;28;19955;-85
2022/09/06 11:41:40;;;;;;;;;;;21.80;99.90;;;;;;5004974;28;19925;-85
2022/09/06 11:44:07;;;;;;;;;;;21.90;99.90;;;;;;4968469;28;19921;-85
2022/09/06 11:46:32;;;;;;;;;;;21.80;99.90;;;;;;4968210;28;19921;-85
2022/09/06 11:49:08;;;;;;;;;;;21.90;99.90;;;;;;4985269;28;20527;-85
2022/09/06 11:51:40;;;;;;;;;;;21.60;99.90;;;;;;5003673;28;19917;-83
2022/09/06 11:54:06;;;;;;;;;;;21.70;99.90;;;;;;5006901;28;19926;-85
2022/09/06 11:56:53;;;;;;;;;;;21.70;99.90;;;;;;4984529;28;19965;-87
2022/09/06 11:59:18;;;;;;;;;;;21.60;99.90;;;;;;4973637;28;19964;-87
2022/09/06 12:01:59;;;;;;;;;;;21.50;99.90;;;;;;4999157;28;19969;-85
2022/09/06 12:04:45;;;;;;;;;;;21.40;99.90;;;;;;5006733;28;19913;-83
2022/09/06 12:07:11;;;;;;;;;;;21.50;99.90;;;;;;5006543;28;19937;-83
2022/09/06 12:09:41;;;;;;;;;;;21.50;99.90;;;;;;5006683;28;19964;-82
2022/09/06 12:12:07;;;;;;;;;;;21.90;99.90;;;;;;5006031;28;20028;-82
2022/09/06 12:14:40;;;;;;;;;;;22.10;99.90;;;;;;5001972;28;20000;-81
2022/09/06 12:17:08;;;;;;;;;;;22.00;99.90;;;;;;4977147;28;19925;-81
2022/09/06 12:19:52;;;;;;;;;;;22.10;99.90;;;;;;4986706;28;19914;-81
2022/09/06 12:22:35;;;;;;;;;;;22.10;99.90;;;;;;4986774;28;19972;-82
2022/09/06 12:25:04;;;;;;;;;;;22.20;99.90;;;;;;4981701;28;19921;-81
2022/09/06 12:27:38;;;;;;;;;;;22.40;99.90;;;;;;4983344;28;19924;-83
2022/09/06 12:30:03;;;;;;;;;;;22.50;99.90;;;;;;4990392;28;20008;-83
2022/09/06 12:32:34;;;;;;;;;;;22.90;99.90;;;;;;5002858;28;20408;-83
2022/09/06 12:35:01;;;;;;;;;;;22.80;99.90;;;;;;4994978;28;19917;-82
2022/09/06 12:37:31;;;;;;;;;;;22.30;99.90;;;;;;4997230;28;19917;-81
2022/09/06 12:39:58;;;;;;;;;;;22.40;99.90;;;;;;4992890;28;20015;-81
2022/09/06 12:42:24;;;;;;;;;;;22.40;99.90;;;;;;4988566;28;19937;-84
2022/09/06 12:44:51;;;;;;;;;;;22.30;99.90;;;;;;4986343;28;19913;-84
2022/09/06 12:47:25;;;;;;;;;;;22.40;99.90;;;;;;4986678;28;19918;-84
2022/09/06 12:50:10;;;;;;;;;;;22.50;99.90;;;;;;4986269;28;19991;-84
2022/09/06 12:52:55;;;;;;;;;;;22.60;99.90;;;;;;4986102;28;19961;-84
2022/09/06 12:55:21;;;;;;;;;;;22.60;99.90;;;;;;4986279;28;19953;-84
2022/09/06 12:57:51;;;;;;;;;;;22.60;99.90;;;;;;4985812;28;19952;-84
2022/09/06 13:00:18;;;;;;;;;;;22.60;99.90;;;;;;4986348;28;19914;-84
2022/09/06 13:02:59;;;;;;;;;;;22.60;99.90;;;;;;4986223;28;19962;-85
2022/09/06 13:05:24;;;;;;;;;;;22.90;99.90;;;;;;4986395;28;20313;-88
2022/09/06 13:07:52;;;;;;;;;;;23.00;99.90;;;;;;4986177;28;19917;-88
2022/09/06 13:10:20;;;;;;;;;;;22.80;99.90;;;;;;4986480;28;19917;-87
2022/09/06 13:12:49;;;;;;;;;;;22.70;99.90;;;;;;4986227;28;19921;-88
2022/09/06 13:15:18;;;;;;;;;;;22.80;99.90;;;;;;4986405;28;20329;-88
2022/09/06 13:17:44;;;;;;;;;;;22.90;99.90;;;;;;4986249;28;20382;-88
2022/09/06 13:20:11;;;;;;;;;;;22.80;99.90;;;;;;4985869;28;20118;-88
2022/09/06 13:22:42;;;;;;;;;;;22.80;99.90;;;;;;4985940;28;19920;-88
2022/09/06 13:25:20;;;;;;;;;;;22.90;99.90;;;;;;4984830;28;19921;-87
2022/09/06 13:27:48;;;;;;;;;;;23.00;99.90;;;;;;4985589;28;20392;-87
2022/09/06 13:30:34;;;;;;;;;;;22.80;99.90;;;;;;4967977;28;20352;-87
2022/09/06 13:33:00;;;;;;;;;;;23.00;99.90;;;;;;4986442;28;19922;-86
2022/09/06 13:35:30;;;;;;;;;;;22.90;99.90;;;;;;4992637;28;19917;-89
2022/09/06 13:38:14;;;;;;;;;;;23.00;99.90;;;;;;4989336;28;20012;-88
2022/09/06 13:40:43;;;;;;;;;;;23.00;99.90;;;;;;4985555;28;19917;-88
2022/09/06 13:43:12;;;;;;;;;;;23.20;99.90;;;;;;4990948;28;19913;-87
2022/09/06 13:45:38;;;;;;;;;;;23.20;99.90;;;;;;5005625;28;20351;-89
2022/09/06 13:48:04;;;;;;;;;;;23.10;99.90;;;;;;4966365;28;19914;-89
2022/09/06 13:50:30;;;;;;;;;;;23.20;99.90;;;;;;4966876;28;19961;-89
2022/09/06 13:52:56;;;;;;;;;;;23.10;99.90;;;;;;4966322;28;19930;-89
2022/09/06 13:55:23;;;;;;;;;;;23.00;99.90;;;;;;4980952;28;19914;-88
2022/09/06 13:57:49;;;;;;;;;;;23.00;99.90;;;;;;4966371;28;20060;-88
2022/09/06 14:00:16;;;;;;;;;;;23.10;99.90;;;;;;4983972;28;19981;-87
2022/09/06 14:02:41;;;;;;;;;;;23.20;99.90;;;;;;4987734;28;19917;-92
2022/09/06 14:05:07;;;;;;;;;;;23.30;99.90;;;;;;4988401;28;19913;-92
2022/09/06 14:07:33;;;;;;;;;;;23.20;99.90;;;;;;4977010;28;19941;-89
2022/09/06 14:09:59;;;;;;;;;;;23.20;99.90;;;;;;4982019;28;19941;-87
2022/09/06 14:12:26;;;;;;;;;;;23.20;99.90;;;;;;4966550;28;20009;-88
2022/09/06 14:14:51;;;;;;;;;;;23.20;99.90;;;;;;4977916;28;20004;-88
2022/09/06 14:17:17;;;;;;;;;;;23.20;99.90;;;;;;5005069;28;20341;-87
2022/09/06 14:19:43;;;;;;;;;;;23.10;99.90;;;;;;4978650;28;19919;-87
2022/09/06 14:22:08;;;;;;;;;;;23.30;99.90;;;;;;4989197;28;19963;-89
2022/09/06 14:24:34;;;;;;;;;;;23.30;99.90;;;;;;4986510;28;20009;-87